Time;durP1;ratioP1;P1;durP2;ratioP2;P2;SDS_P1;SDS_P2;PMS_P1;PMS_P2;Temp;Humidity;BMP_temperature;BMP_pressure;BME280_temperature;BME280_humidity;BME280_pressure;Samples;Min_cycle;Max_cycle;Signal;HPM_P1;HPM_P2
2022/01/16 00:00:15;;;;;;;57.27;34.50;;;;;;;0.46;95.38;102285.03;5073121;28;20486;-65
2022/01/16 00:05:23;;;;;;;53.43;33.03;;;;;;;0.51;94.98;102308.59;5073167;28;20063;-65
2022/01/16 00:07:48;;;;;;;59.13;33.40;;;;;;;0.47;95.10;102302.47;5073057;28;20510;-65
2022/01/16 00:10:17;;;;;;;76.00;33.90;;;;;;;0.40;94.77;102300.72;5072870;28;20395;-65
2022/01/16 00:12:47;;;;;;;73.27;33.20;;;;;;;0.37;94.65;102306.81;5073312;28;20023;-65
2022/01/16 00:15:14;;;;;;;71.65;34.45;;;;;;;0.39;94.79;102305.06;5072883;28;20032;-65
2022/01/16 00:17:52;;;;;;;67.57;33.60;;;;;;;0.36;94.77;102309.44;5072724;28;20418;-65
2022/01/16 00:20:18;;;;;;;63.17;34.37;;;;;;;0.34;94.92;102311.16;5071987;28;20017;-65
2022/01/16 00:22:45;;;;;;;57.97;34.77;;;;;;;0.36;94.71;102297.22;5072951;28;20035;-65
2022/01/16 00:25:11;;;;;;;52.17;34.40;;;;;;;0.41;95.52;102297.22;5072064;28;20027;-65
2022/01/16 00:27:36;;;;;;;65.07;35.10;;;;;;;0.37;95.00;102292.84;5072718;28;20029;-65
2022/01/16 00:30:05;;;;;;;56.97;34.20;;;;;;;0.37;95.41;102266.69;5072440;28;20027;-65
2022/01/16 00:32:31;;;;;;;72.73;34.60;;;;;;;0.38;95.12;102271.94;5072718;28;20041;-65
2022/01/16 00:34:56;;;;;;;73.03;36.47;;;;;;;0.35;94.81;102276.28;5072365;28;20036;-65
2022/01/16 00:37:22;;;;;;;68.23;35.57;;;;;;;0.33;95.21;102289.38;5072262;28;20035;-66
2022/01/16 00:39:48;;;;;;;58.23;34.00;;;;;;;0.33;95.00;102289.38;5071079;28;20028;-66
2022/01/16 00:42:15;;;;;;;62.37;36.60;;;;;;;0.28;94.90;102285.84;5072597;28;20032;-66
2022/01/16 00:44:41;;;;;;;60.77;35.03;;;;;;;0.39;95.03;102288.50;5072040;28;20025;-66
2022/01/16 00:47:07;;;;;;;57.77;34.87;;;;;;;0.37;95.41;102292.84;5072036;28;20517;-66
2022/01/16 00:49:36;;;;;;;57.00;35.07;;;;;;;0.36;94.97;102278.91;5070473;28;20020;-66
2022/01/16 00:52:02;;;;;;;57.50;34.60;;;;;;;0.31;95.17;102283.25;5072381;28;20025;-66
2022/01/16 00:54:28;;;;;;;59.00;35.87;;;;;;;0.40;95.38;102296.34;5072406;28;20464;-66
2022/01/16 00:56:54;;;;;;;57.77;35.70;;;;;;;0.49;95.24;102266.69;5072465;28;20046;-67
2022/01/16 00:59:21;;;;;;;61.70;35.70;;;;;;;0.48;94.78;102251.00;5071661;28;20048;-66
2022/01/16 01:01:48;;;;;;;62.63;36.30;;;;;;;0.43;94.91;102236.16;5071269;28;20024;-66
2022/01/16 01:04:14;;;;;;;65.73;35.67;;;;;;;0.40;94.40;102248.38;5070454;28;20024;-66
2022/01/16 01:06:39;;;;;;;62.90;35.50;;;;;;;0.39;94.88;102259.72;5071750;28;20039;-66
2022/01/16 01:09:04;;;;;;;61.67;37.40;;;;;;;0.37;95.04;102248.38;5071975;28;20033;-66
2022/01/16 01:11:31;;;;;;;59.67;35.73;;;;;;;0.39;95.33;102270.19;5070643;28;20160;-66
2022/01/16 01:14:15;;;;;;;60.10;35.13;;;;;;;0.42;94.99;102264.97;5071689;28;20051;-66
2022/01/16 01:17:01;;;;;;;58.33;33.93;;;;;;;0.44;94.83;102271.06;5071073;28;20083;-66
2022/01/16 01:19:33;;;;;;;67.73;37.13;;;;;;;0.44;94.67;102253.63;5070470;28;20016;-67
2022/01/16 01:21:59;;;;;;;63.33;35.70;;;;;;;0.49;94.92;102258.84;5071881;28;20043;-66
2022/01/16 01:24:26;;;;;;;61.17;35.47;;;;;;;0.48;95.08;102238.78;5071266;28;20048;-66
2022/01/16 01:27:02;;;;;;;62.43;37.50;;;;;;;0.52;95.17;102250.13;5070429;28;20028;-66
2022/01/16 01:29:29;;;;;;;63.70;36.93;;;;;;;0.49;95.22;102266.69;5071140;28;20029;-66
2022/01/16 01:31:58;;;;;;;70.93;38.33;;;;;;;0.45;94.85;102262.34;5071629;28;20036;-66
2022/01/16 01:34:23;;;;;;;68.60;37.80;;;;;;;0.43;95.25;102259.72;5070952;28;20964;-66
2022/01/16 01:36:49;;;;;;;76.10;38.83;;;;;;;0.40;95.26;102214.34;5071525;28;20487;-66
2022/01/16 01:39:19;;;;;;;89.23;39.80;;;;;;;0.35;95.26;102177.69;5070075;28;20024;-66
2022/01/16 01:41:50;;;;;;;73.15;39.47;;;;;;;0.41;95.68;102176.84;5071680;28;20077;-66
2022/01/16 01:52:29;;;;;;;72.67;38.30;;;;;;;0.57;95.61;102214.38;5071402;28;20051;-66
2022/01/16 01:54:55;;;;;;;79.50;38.67;;;;;;;0.57;95.57;102224.84;5071197;28;20463;-66
2022/01/16 01:57:20;;;;;;;80.63;38.63;;;;;;;0.57;95.90;102230.09;5086112;28;20032;-65
2022/01/16 01:59:46;;;;;;;83.33;38.53;;;;;;;0.51;95.84;102249.28;5071596;28;20058;-66
2022/01/16 02:02:14;;;;;;;76.90;39.23;;;;;;;0.48;95.82;102244.03;5071198;28;20524;-66
2022/01/16 02:04:39;;;;;;;92.93;39.07;;;;;;;0.43;95.82;102258.84;5071404;28;20475;-67
2022/01/16 02:07:05;;;;;;;71.73;36.33;;;;;;;0.40;95.58;102264.06;5070817;28;20039;-66
2022/01/16 02:09:31;;;;;;;98.73;37.47;;;;;;;0.33;95.50;102271.06;5071077;28;20032;-66
2022/01/16 02:11:57;;;;;;;97.03;37.50;;;;;;;0.28;95.27;102253.59;5070784;28;20483;-66
2022/01/16 02:14:49;;;;;;;77.37;39.57;;;;;;;0.23;95.89;102261.41;5087520;28;20029;-66
2022/01/16 02:36:20;;;;;;;75.95;39.15;;;;;;;0.22;96.43;102283.22;5071658;28;20036;-66
2022/01/16 02:38:47;;;;;;;85.97;37.87;;;;;;;0.23;95.81;102291.06;5070875;28;20397;-66
2022/01/16 02:41:15;;;;;;;80.47;38.20;;;;;;;0.19;96.58;102277.97;5070185;28;20283;-66
2022/01/16 02:43:46;;;;;;;85.67;39.27;;;;;;;0.16;96.45;102265.75;5069547;28;20028;-66
2022/01/16 02:48:42;;;;;;;82.30;40.50;;;;;;;0.27;96.99;102262.31;5069620;28;20042;-66
2022/01/16 02:51:08;;;;;;;85.37;41.90;;;;;;;0.30;96.56;102259.72;5069964;28;20037;-66
2022/01/16 02:53:35;;;;;;;87.50;41.90;;;;;;;0.33;96.25;102262.34;5070890;28;20036;-66
2022/01/16 02:56:04;;;;;;;87.70;41.93;;;;;;;0.30;96.55;102259.72;5083680;28;20020;-66
2022/01/16 02:58:29;;;;;;;88.93;43.43;;;;;;;0.29;96.34;102247.47;5069342;28;20492;-67
2022/01/16 03:00:54;;;;;;;99.90;44.50;;;;;;;0.25;96.77;102233.53;5070327;28;20079;-67
2022/01/16 03:03:20;;;;;;;81.40;42.33;;;;;;;0.20;96.89;102225.66;5070816;28;20112;-66
2022/01/16 03:05:47;;;;;;;98.37;43.73;;;;;;;0.30;97.17;102231.78;5070151;28;20025;-66
2022/01/16 03:08:13;;;;;;;96.53;45.80;;;;;;;0.34;96.67;102219.59;5070209;28;20064;-66
2022/01/16 03:13:26;;;;;;;94.03;46.87;;;;;;;0.40;97.05;102204.75;5070703;28;20086;-66
2022/01/16 03:15:54;;;;;;;98.38;47.83;;;;;;;0.43;97.01;102211.75;5070437;28;20039;-66
2022/01/16 03:23:33;;;;;;;98.13;47.27;;;;;;;0.51;97.04;102206.53;5069470;28;20060;-66
2022/01/16 03:25:59;;;;;;;91.73;49.13;;;;;;;0.53;96.58;102212.59;5070036;28;20039;-66
2022/01/16 03:28:25;;;;;;;90.23;49.00;;;;;;;0.53;97.11;102210.88;5069948;28;20024;-67
2022/01/16 03:30:52;;;;;;;94.23;50.83;;;;;;;0.54;96.69;102196.06;5070691;28;20062;-66
2022/01/16 03:33:18;;;;;;;96.73;49.63;;;;;;;0.55;96.88;102185.56;5073232;28;20091;-66
2022/01/16 03:35:44;;;;;;;92.87;48.90;;;;;;;0.62;96.65;102203.03;5073784;28;20128;-66
2022/01/16 03:38:10;;;;;;;94.03;49.67;;;;;;;0.63;96.76;102206.53;5071740;28;20086;-66
2022/01/16 03:40:35;;;;;;;92.50;49.90;;;;;;;0.65;97.03;102205.66;5072512;28;20028;-66
2022/01/16 03:43:11;;;;;;;93.97;50.17;;;;;;;0.67;96.35;102203.03;5073585;28;20039;-66
2022/01/16 03:45:37;;;;;;;90.67;49.07;;;;;;;0.70;96.36;102199.53;5073855;28;20024;-66
2022/01/16 03:48:03;;;;;;;97.13;51.10;;;;;;;0.65;96.68;102200.41;5073277;28;20028;-66
2022/01/16 03:50:28;;;;;;;98.17;52.80;;;;;;;0.67;97.15;102196.03;5073662;28;20021;-67
2022/01/16 03:52:54;;;;;;;95.00;50.77;;;;;;;0.65;97.13;102203.03;5072122;28;20475;-66
2022/01/16 03:55:22;;;;;;;94.80;51.67;;;;;;;0.70;96.95;102208.25;5073282;28;20090;-66
2022/01/16 03:57:48;;;;;;;93.90;51.07;;;;;;;0.68;97.43;102199.53;5073610;28;20392;-66
2022/01/16 04:00:13;;;;;;;88.10;52.00;;;;;;;0.72;97.34;102203.91;5071552;28;20039;-66
2022/01/16 04:02:39;;;;;;;96.73;53.03;;;;;;;0.73;97.42;102197.78;5073659;28;20483;-66
2022/01/16 04:05:05;;;;;;;86.57;52.50;;;;;;;0.76;97.05;102207.38;5073162;28;20024;-66
2022/01/16 04:07:35;;;;;;;88.10;50.03;;;;;;;0.74;97.53;102201.28;5073100;28;20103;-66
2022/01/16 04:10:02;;;;;;;91.65;51.72;;;;;;;0.76;97.18;102210.00;5072868;28;20032;-66
2022/01/16 04:12:27;;;;;;;93.70;52.73;;;;;;;0.79;97.26;102207.38;5073321;28;20031;-66
2022/01/16 04:17:21;;;;;;;89.53;51.83;;;;;;;0.86;97.29;102206.50;5073233;28;20033;-66
2022/01/16 04:19:47;;;;;;;84.03;49.90;;;;;;;0.86;97.05;102190.81;5072780;28;20032;-66
2022/01/16 04:22:14;;;;;;;88.03;51.90;;;;;;;0.88;97.37;102189.94;5072658;28;20024;-66
2022/01/16 04:24:40;;;;;;;82.37;50.10;;;;;;;0.95;97.14;102203.88;5072783;28;20382;-66
2022/01/16 04:27:06;;;;;;;83.87;50.13;;;;;;;0.90;96.89;102197.78;5072899;28;20406;-66
2022/01/16 04:29:32;;;;;;;88.40;51.40;;;;;;;0.87;97.20;102203.88;5072451;28;20029;-66
2022/01/16 04:31:57;;;;;;;82.60;49.43;;;;;;;0.80;96.96;102191.69;5071629;28;20119;-66
2022/01/16 04:34:23;;;;;;;84.87;51.00;;;;;;;0.88;97.34;102204.75;5071415;28;20032;-67
2022/01/16 04:36:48;;;;;;;95.93;54.40;;;;;;;0.87;97.17;102203.88;5054442;28;20021;-66
2022/01/16 04:39:17;;;;;;;87.50;52.63;;;;;;;0.87;97.72;102201.25;5070839;28;20031;-66
2022/01/16 04:44:30;;;;;;;91.50;52.57;;;;;;;0.90;97.40;102196.00;5072613;28;20098;-66
2022/01/16 04:46:58;;;;;;;89.33;52.40;;;;;;;0.93;97.70;102192.53;5071289;28;20042;-66
2022/01/16 04:49:24;;;;;;;88.07;51.67;;;;;;;0.90;97.81;102190.78;5071963;28;20037;-66
2022/01/16 04:51:50;;;;;;;89.60;52.87;;;;;;;0.84;97.53;102180.31;5072624;28;20020;-66
2022/01/16 04:54:18;;;;;;;86.53;54.17;;;;;;;0.91;97.66;102191.66;5071713;28;20032;-66
2022/01/16 04:56:43;;;;;;;86.60;52.80;;;;;;;0.92;97.77;102182.06;5070559;28;20561;-66
2022/01/16 04:59:09;;;;;;;88.33;53.80;;;;;;;0.92;97.94;102176.81;5072094;28;20053;-66
2022/01/16 05:01:34;;;;;;;90.23;53.80;;;;;;;0.93;98.17;102179.44;5087898;28;20398;-66
2022/01/16 05:03:59;;;;;;;89.23;52.13;;;;;;;0.94;97.81;102188.16;5072215;28;20089;-66
2022/01/16 05:06:25;;;;;;;88.13;53.20;;;;;;;0.95;97.80;102180.31;5072512;28;20107;-66
2022/01/16 05:08:51;;;;;;;91.47;55.10;;;;;;;0.97;98.33;102175.06;5071194;28;20052;-66
2022/01/16 05:11:22;;;;;;;90.73;55.10;;;;;;;0.96;98.33;102165.47;5071591;28;20031;-66
2022/01/16 05:16:37;;;;;;;97.50;55.87;;;;;;;1.01;97.96;102174.19;5072598;28;20112;-67
2022/01/16 05:19:14;;;;;;;93.43;56.83;;;;;;;1.04;98.44;102171.56;5069659;28;20311;-66
2022/01/16 05:21:42;;;;;;;89.13;55.43;;;;;;;1.05;98.42;102179.41;5070745;28;20032;-66
2022/01/16 05:24:10;;;;;;;90.87;54.60;;;;;;;1.05;98.87;102168.06;5072616;28;20471;-67
2022/01/16 05:26:41;;;;;;;93.13;57.37;;;;;;;1.06;98.65;102178.53;5071610;28;20107;-67
2022/01/16 05:29:08;;;;;;;94.53;57.57;;;;;;;1.05;98.94;102168.91;5070228;28;20029;-66
2022/01/16 05:31:35;;;;;;;93.27;57.80;;;;;;;1.09;98.96;102172.44;5071357;28;20016;-66
2022/01/16 05:34:01;;;;;;;93.03;57.57;;;;;;;1.11;98.78;102182.00;5071790;28;20032;-67
2022/01/16 05:36:26;;;;;;;95.27;58.70;;;;;;;1.14;98.69;102182.00;5070180;28;20487;-66
2022/01/16 05:38:53;;;;;;;96.20;57.33;;;;;;;1.13;98.71;102174.16;5072273;28;20024;-66
2022/01/16 05:41:19;;;;;;;93.93;57.23;;;;;;;1.14;99.02;102179.38;5069982;28;20043;-66
2022/01/16 05:43:45;;;;;;;94.53;57.60;;;;;;;1.14;99.24;102182.00;5070385;28;20020;-66
2022/01/16 05:46:11;;;;;;;98.17;59.30;;;;;;;1.20;98.94;102191.59;5070742;28;20013;-66
2022/01/16 05:48:37;;;;;;;102.77;59.57;;;;;;;1.21;99.10;102192.50;5070325;28;20040;-67
2022/01/16 05:51:02;;;;;;;98.00;58.60;;;;;;;1.18;99.17;102195.09;5071443;28;20103;-66
2022/01/16 05:53:28;;;;;;;94.17;60.20;;;;;;;1.23;99.12;102201.19;5071124;28;20067;-67
2022/01/16 05:55:53;;;;;;;98.77;60.60;;;;;;;1.22;99.29;102199.47;5084351;28;20024;-66
2022/01/16 05:58:19;;;;;;;103.17;62.37;;;;;;;1.24;99.13;102201.22;5070491;28;20059;-66
2022/01/16 06:00:47;;;;;;;98.20;59.77;;;;;;;1.25;99.07;102200.31;5071216;28;20564;-66
2022/01/16 06:03:12;;;;;;;105.73;62.97;;;;;;;1.26;99.31;102194.19;5070291;28;20039;-67
2022/01/16 06:05:38;;;;;;;97.93;61.20;;;;;;;1.27;99.72;102193.34;5071316;28;20028;-66
2022/01/16 06:08:09;;;;;;;104.23;61.07;;;;;;;1.30;99.34;102202.94;5070069;28;20104;-66
2022/01/16 06:10:35;;;;;;;101.73;61.17;;;;;;;1.31;99.55;102197.69;5069461;28;20028;-66
2022/01/16 06:13:02;;;;;;;99.47;60.97;;;;;;;1.33;99.36;102195.06;5070999;28;20620;-66
2022/01/16 06:15:27;;;;;;;103.33;63.30;;;;;;;1.30;99.42;102188.09;5069183;28;20028;-66
2022/01/16 06:17:53;;;;;;;113.57;65.70;;;;;;;1.38;99.89;102192.41;5080642;28;20051;-66
2022/01/16 06:20:20;;;;;;;109.73;64.63;;;;;;;1.39;100.00;102195.03;5086224;28;20052;-67
2022/01/16 06:22:46;;;;;;;111.67;65.73;;;;;;;1.46;100.00;102193.28;5071202;28;20044;-66
2022/01/16 06:25:13;;;;;;;111.30;65.17;;;;;;;1.41;100.00;102189.78;5070123;28;20094;-66
2022/01/16 06:27:43;;;;;;;105.53;64.03;;;;;;;1.48;99.58;102188.91;5070839;28;20029;-66
2022/01/16 06:30:12;;;;;;;110.17;64.23;;;;;;;1.47;100.00;102195.91;5070748;28;20062;-66
2022/01/16 06:32:38;;;;;;;111.00;65.13;;;;;;;1.43;100.00;102191.53;5069232;28;20013;-66
2022/01/16 06:35:09;;;;;;;105.47;64.57;;;;;;;1.46;100.00;102188.88;5070639;28;20549;-66
2022/01/16 06:37:35;;;;;;;110.17;59.97;;;;;;;1.52;99.61;102201.97;5070689;28;20095;-67
2022/01/16 06:40:01;;;;;;;104.63;63.27;;;;;;;1.64;99.63;102227.28;5070533;28;20082;-66
2022/01/16 06:42:27;;;;;;;113.13;64.23;;;;;;;1.62;99.90;102223.81;5070321;28;20051;-66
2022/01/16 06:44:53;;;;;;;116.70;66.37;;;;;;;1.66;99.89;102227.28;5070782;28;20060;-66
2022/01/16 06:47:19;;;;;;;112.00;63.90;;;;;;;1.69;100.00;102233.38;5074008;28;20028;-66
2022/01/16 06:49:44;;;;;;;109.77;64.13;;;;;;;1.68;99.91;102222.91;5090471;28;20032;-66
2022/01/16 06:52:10;;;;;;;107.50;61.83;;;;;;;1.70;100.00;102227.25;5070947;28;20032;-66
2022/01/16 06:54:35;;;;;;;109.53;63.33;;;;;;;1.77;99.97;102217.63;5070505;28;20029;-66
2022/01/16 06:57:01;;;;;;;104.17;61.97;;;;;;;1.79;99.62;102232.47;5070476;28;20085;-67
2022/01/16 06:59:29;;;;;;;109.53;63.23;;;;;;;1.80;100.00;102235.97;5070287;28;20076;-66
2022/01/16 07:01:58;;;;;;;108.50;62.07;;;;;;;1.87;99.50;102234.19;5069420;28;20028;-66
2022/01/16 07:04:24;;;;;;;107.73;62.63;;;;;;;1.74;99.85;102236.00;5068599;28;20085;-66
2022/01/16 07:06:50;;;;;;;101.23;60.43;;;;;;;1.87;99.86;102239.44;5074071;28;20020;-66
2022/01/16 07:09:18;;;;;;;109.13;60.10;;;;;;;1.97;98.97;102243.75;5073791;28;20021;-66
2022/01/16 07:11:44;;;;;;;97.40;56.93;;;;;;;1.89;99.54;102250.81;5074274;28;20040;-66
2022/01/16 07:14:11;;;;;;;106.33;59.73;;;;;;;1.96;99.03;102239.38;5074067;28;20039;-66
2022/01/16 07:16:37;;;;;;;101.47;58.47;;;;;;;1.92;99.18;102259.53;5073751;28;20024;-66
2022/01/16 07:19:04;;;;;;;105.60;59.17;;;;;;;1.97;99.01;102268.25;5056264;28;20044;-66
2022/01/16 07:21:30;;;;;;;101.93;57.60;;;;;;;1.95;99.26;102271.75;5074092;28;20483;-66
2022/01/16 07:23:56;;;;;;;92.83;57.23;;;;;;;1.94;99.45;102283.09;5089855;28;20028;-66
2022/01/16 07:26:21;;;;;;;95.90;56.43;;;;;;;1.97;99.84;102291.88;5073152;28;20031;-67
2022/01/16 07:28:47;;;;;;;99.63;57.30;;;;;;;1.99;99.40;102291.84;5072670;28;20028;-66
2022/01/16 07:31:13;;;;;;;98.80;56.67;;;;;;;1.93;99.81;102287.50;5089025;28;20311;-66
2022/01/16 07:33:38;;;;;;;96.73;56.13;;;;;;;2.03;99.40;102285.72;5056073;28;20119;-66
2022/01/16 07:36:04;;;;;;;94.03;55.33;;;;;;;2.15;98.47;102303.16;5073167;28;20112;-66
2022/01/16 07:38:30;;;;;;;92.53;54.47;;;;;;;1.99;98.70;102292.72;5073808;28;20025;-66
2022/01/16 07:40:55;;;;;;;96.23;55.73;;;;;;;2.00;99.21;102290.94;5073562;28;20032;-67
2022/01/16 07:43:21;;;;;;;94.30;56.23;;;;;;;2.04;99.56;102301.44;5073998;28;20029;-66
2022/01/16 07:45:49;;;;;;;94.97;54.53;;;;;;;2.08;99.57;102291.78;5073208;28;20116;-67
2022/01/16 07:48:15;;;;;;;90.70;53.93;;;;;;;2.10;99.04;102307.56;5072459;28;20527;-67
2022/01/16 07:50:41;;;;;;;96.33;55.47;;;;;;;2.11;99.10;102312.78;5071907;28;20115;-66
2022/01/16 07:53:07;;;;;;;92.63;54.70;;;;;;;2.13;99.47;102311.03;5072023;28;20104;-67
2022/01/16 07:55:32;;;;;;;87.67;54.63;;;;;;;2.14;99.21;102314.50;5072878;28;20036;-67
2022/01/16 07:57:58;;;;;;;86.93;54.07;;;;;;;2.20;99.08;102330.22;5073225;28;20399;-66
2022/01/16 08:00:25;;;;;;;85.50;52.03;;;;;;;2.23;99.18;102338.09;5071884;28;20017;-66
2022/01/16 08:02:54;;;;;;;83.43;53.20;;;;;;;2.27;98.71;102326.72;5073677;28;20479;-66
2022/01/16 08:05:20;;;;;;;87.50;53.57;;;;;;;2.25;99.26;102337.22;5071585;28;20085;-66
2022/01/16 08:07:46;;;;;;;94.37;54.63;;;;;;;2.25;99.18;102333.72;5073040;28;20078;-67
2022/01/16 08:10:12;;;;;;;89.07;52.70;;;;;;;2.37;98.53;102332.78;5072972;28;20418;-67
2022/01/16 08:12:38;;;;;;;83.20;50.43;;;;;;;2.37;98.61;102338.03;5073122;28;20016;-66
2022/01/16 08:15:05;;;;;;;93.20;52.50;;;;;;;2.33;99.08;102326.69;5072811;28;20108;-67
2022/01/16 08:17:31;;;;;;;93.57;49.73;;;;;;;2.34;99.55;102328.41;5072658;28;20064;-66
2022/01/16 08:19:56;;;;;;;91.37;55.40;;;;;;;2.35;99.52;102311.78;5078475;28;20079;-67
2022/01/16 08:22:24;;;;;;;99.37;54.77;;;;;;;2.35;99.56;102314.41;5071769;28;20020;-66
2022/01/16 08:24:49;;;;;;;88.17;52.67;;;;;;;2.47;99.04;102310.84;5068632;28;20028;-66
2022/01/16 08:27:15;;;;;;;88.13;51.23;;;;;;;2.44;99.25;102303.88;5071394;28;20070;-66
2022/01/16 08:29:44;;;;;;;92.15;52.78;;;;;;;2.41;99.60;102301.28;5067568;28;20529;-66
2022/01/16 08:32:10;;;;;;;93.20;52.03;;;;;;;2.44;99.41;102309.13;5076764;28;20067;-66
2022/01/16 08:34:38;;;;;;;91.00;51.30;;;;;;;2.45;99.52;102308.25;5072797;28;20137;-66
2022/01/16 08:37:04;;;;;;;91.23;51.07;;;;;;;2.52;99.21;102309.06;5076413;28;20422;-65
2022/01/16 08:39:30;;;;;;;94.93;53.55;;;;;;;2.47;99.40;102302.97;5083608;28;20024;-67
2022/01/16 08:41:55;;;;;;;93.13;50.15;;;;;;;2.45;98.96;102300.38;5082813;28;20156;-67
2022/01/16 08:44:21;;;;;;;93.03;53.50;;;;;;;2.50;99.11;102309.09;5075966;28;20032;-66
2022/01/16 08:46:47;;;;;;;96.50;52.90;;;;;;;2.56;98.66;102309.91;5071752;28;20029;-66
2022/01/16 08:49:13;;;;;;;97.72;53.92;;;;;;;2.55;99.15;102316.06;5071566;28;20040;-67
2022/01/16 08:51:39;;;;;;;93.82;53.38;;;;;;;2.57;98.92;102309.91;5070444;28;20020;-66
2022/01/16 08:54:04;;;;;;;96.93;54.53;;;;;;;2.62;98.48;102323.91;5053403;28;20031;-65
2022/01/16 08:56:30;;;;;;;93.97;54.30;;;;;;;2.64;98.60;102331.75;5070851;28;20509;-65
2022/01/16 08:58:55;;;;;;;93.73;53.57;;;;;;;2.69;98.98;102330.84;5072395;28;20045;-65
2022/01/16 09:01:21;;;;;;;92.57;50.20;;;;;;;2.67;99.30;102337.84;5071662;28;20031;-65
2022/01/16 09:03:47;;;;;;;99.33;51.57;;;;;;;2.69;98.75;102343.13;5073275;28;20032;-65
2022/01/16 09:06:12;;;;;;;105.30;55.35;;;;;;;2.75;98.57;102334.31;5071643;28;20036;-65
2022/01/16 09:08:39;;;;;;;94.20;49.95;;;;;;;2.88;97.29;102338.59;5071840;28;20107;-65
2022/01/16 09:11:05;;;;;;;101.13;56.28;;;;;;;2.79;99.11;102347.41;5070301;28;20175;-65
2022/01/16 09:13:30;;;;;;;108.30;55.47;;;;;;;2.77;98.77;102346.56;5071479;28;20099;-66
2022/01/16 09:15:57;;;;;;;103.87;56.43;;;;;;;2.81;98.26;102340.41;5072026;28;20040;-67
2022/01/16 09:18:25;;;;;;;104.63;57.23;;;;;;;2.83;98.60;102349.16;5071010;28;20545;-67
2022/01/16 09:20:51;;;;;;;104.97;56.08;;;;;;;2.88;98.55;102357.88;5072696;28;20028;-65
2022/01/16 09:23:17;;;;;;;103.77;56.07;;;;;;;2.89;98.56;102362.25;5071154;28;20090;-65
2022/01/16 09:25:42;;;;;;;101.05;52.20;;;;;;;2.91;98.89;102365.75;5054447;28;20037;-65
2022/01/16 09:28:08;;;;;;;112.90;61.10;;;;;;;2.97;97.97;102372.69;5070893;28;20021;-65
2022/01/16 09:30:34;;;;;;;112.50;58.80;;;;;;;2.91;98.61;102364.84;5072088;28;20078;-65
2022/01/16 09:33:00;;;;;;;116.75;59.65;;;;;;;2.96;98.63;102366.56;5072252;28;20394;-66
2022/01/16 09:35:26;;;;;;;119.53;60.37;;;;;;;3.00;99.24;102379.69;5071597;28;20040;-66
2022/01/16 09:37:54;;;;;;;123.30;62.27;;;;;;;3.02;99.44;102378.78;5072143;28;20029;-65
2022/01/16 09:40:21;;;;;;;122.37;61.20;;;;;;;3.02;99.36;102376.16;5072087;28;20028;-66
2022/01/16 09:42:48;;;;;;;130.05;62.60;;;;;;;3.05;98.96;102377.91;5071621;28;20028;-65
2022/01/16 09:45:17;;;;;;;126.20;61.50;;;;;;;3.08;99.34;102389.25;5070359;28;20044;-66
2022/01/16 09:47:44;;;;;;;130.93;65.13;;;;;;;3.12;99.84;102382.25;5070476;28;20028;-66
2022/01/16 09:50:11;;;;;;;136.27;65.00;;;;;;;3.18;98.84;102390.97;5071722;28;20024;-66
2022/01/16 09:52:41;;;;;;;132.77;63.88;;;;;;;3.15;99.66;102392.75;5071621;28;20468;-66
2022/01/16 09:55:10;;;;;;;136.65;60.83;;;;;;;3.14;99.60;102394.47;5071787;28;20472;-66
2022/01/16 09:57:36;;;;;;;138.20;63.00;;;;;;;3.17;99.64;102397.06;5071594;28;20029;-66
2022/01/16 10:00:09;;;;;;;139.80;64.60;;;;;;;3.17;99.96;102397.06;5071656;28;20070;-65
2022/01/16 10:02:34;;;;;;;134.05;64.65;;;;;;;3.21;100.00;102403.22;5071654;28;20036;-65
2022/01/16 10:05:00;;;;;;;141.27;61.33;;;;;;;3.19;100.00;102402.34;5071420;28;20460;-66
2022/01/16 10:07:25;;;;;;;142.85;61.50;;;;;;;3.24;99.57;102400.56;5070475;28;20082;-66
2022/01/16 10:10:09;;;;;;;142.07;63.58;;;;;;;3.34;99.34;102423.25;5071634;28;20063;-65
2022/01/16 10:12:35;;;;;;;138.70;62.35;;;;;;;3.36;98.95;102418.88;5070352;28;20436;-66
2022/01/16 10:15:21;;;;;;;133.27;64.57;;;;;;;3.35;100.00;102427.66;5071053;28;20048;-66
2022/01/16 10:17:49;;;;;;;144.00;61.63;;;;;;;3.31;99.49;102414.53;5070234;28;20093;-66
2022/01/16 10:20:18;;;;;;;143.25;64.15;;;;;;;3.36;100.00;102429.38;5071670;28;20077;-66
2022/01/16 10:22:55;;;;;;;151.07;61.10;;;;;;;3.41;99.33;102431.97;5071625;28;20036;-65
2022/01/16 10:25:41;;;;;;;146.18;62.08;;;;;;;3.45;100.00;102433.69;5071499;28;20036;-66
2022/01/16 10:28:27;;;;;;;138.50;62.45;;;;;;;3.50;100.00;102438.91;5071467;28;20103;-65
2022/01/16 10:30:55;;;;;;;136.45;60.13;;;;;;;3.50;100.00;102438.91;5070500;28;20029;-66
2022/01/16 10:33:26;;;;;;;141.00;61.78;;;;;;;3.51;99.93;102436.28;5070793;28;20158;-65
2022/01/16 10:35:54;;;;;;;135.90;59.28;;;;;;;3.53;99.83;102437.16;5067625;28;20025;-66
2022/01/16 10:38:21;;;;;;;131.10;56.15;;;;;;;3.57;99.51;102433.59;5070785;28;20059;-65
2022/01/16 10:40:51;;;;;;;126.22;56.20;;;;;;;3.62;98.87;102442.31;5071599;28;20024;-65
2022/01/16 10:43:21;;;;;;;127.10;58.45;;;;;;;3.60;99.79;102437.97;5083035;28;20024;-65
2022/01/16 10:45:58;;;;;;;127.43;59.05;;;;;;;3.60;99.87;102437.97;5103836;28;20063;-65
2022/01/16 10:48:25;;;;;;;137.43;57.35;;;;;;;3.62;99.78;102433.56;5074373;28;20372;-65
2022/01/16 10:50:51;;;;;;;127.40;56.40;;;;;;;3.69;98.79;102442.28;5073304;28;20036;-65
2022/01/16 10:53:19;;;;;;;119.70;55.83;;;;;;;3.72;99.68;102437.84;5072678;28;20398;-65
2022/01/16 10:55:47;;;;;;;115.95;53.20;;;;;;;3.79;97.97;102425.50;5073919;28;20057;-65
2022/01/16 10:58:22;;;;;;;109.13;53.97;;;;;;;3.84;98.32;102435.09;5071827;28;20055;-66
2022/01/16 11:01:00;;;;;;;119.50;53.92;;;;;;;3.95;98.71;102442.91;5073370;28;20032;-65
2022/01/16 11:03:26;;;;;;;110.47;53.22;;;;;;;4.04;98.30;102441.94;5071776;28;20113;-66
2022/01/16 11:05:53;;;;;;;130.18;56.30;;;;;;;4.01;97.77;102444.59;5073953;28;20040;-66
2022/01/16 11:08:22;;;;;;;123.10;56.25;;;;;;;4.01;98.44;102450.75;5072865;28;20113;-65
2022/01/16 11:10:54;;;;;;;113.05;55.13;;;;;;;4.01;97.71;102444.59;5073938;28;20027;-66
2022/01/16 11:13:21;;;;;;;115.13;54.53;;;;;;;3.99;97.75;102451.63;5072229;28;20490;-65
2022/01/16 11:15:50;;;;;;;113.22;53.50;;;;;;;3.95;99.22;102453.44;5073650;28;20035;-66
2022/01/16 11:18:17;;;;;;;108.47;51.13;;;;;;;4.00;97.62;102458.63;5072292;28;20029;-66
2022/01/16 11:20:52;;;;;;;93.78;45.00;;;;;;;3.96;97.48;102456.94;5073638;28;20032;-66
2022/01/16 11:26:06;;;;;;;117.75;55.17;;;;;;;3.93;97.04;102443.81;5072161;28;20037;-66
2022/01/16 11:28:34;;;;;;;111.55;53.00;;;;;;;3.87;97.79;102442.09;5071924;28;20031;-66
2022/01/16 11:31:04;;;;;;;110.05;53.90;;;;;;;3.94;97.20;102449.06;5073746;28;20070;-66
2022/01/16 11:33:33;;;;;;;109.32;51.95;;;;;;;3.84;98.54;102440.38;5071758;28;20403;-66
2022/01/16 11:36:02;;;;;;;116.72;54.00;;;;;;;3.93;98.07;102449.06;5073749;28;20040;-66
2022/01/16 11:38:31;;;;;;;116.82;54.83;;;;;;;3.92;98.02;102448.19;5072704;28;20032;-66
2022/01/16 11:41:01;;;;;;;117.22;55.55;;;;;;;3.96;98.15;102447.28;5073468;28;20429;-66
2022/01/16 11:43:38;;;;;;;113.57;54.25;;;;;;;3.94;98.35;102445.53;5071363;28;20750;-66
2022/01/16 11:46:27;;;;;;;108.00;53.85;;;;;;;3.97;98.27;102449.03;5072979;28;20032;-65
2022/01/16 11:48:58;;;;;;;112.57;54.15;;;;;;;3.87;98.13;102440.34;5076107;28;20474;-65
2022/01/16 11:51:36;;;;;;;118.00;54.42;;;;;;;3.89;98.81;102439.47;5073794;28;20421;-66
2022/01/16 11:54:02;;;;;;;118.57;53.80;;;;;;;3.90;98.52;102446.47;5071379;28;20047;-65
2022/01/16 11:56:57;;;;;;;105.82;51.85;;;;;;;3.93;98.39;102442.03;5073177;28;20388;-65
2022/01/16 11:59:40;;;;;;;110.45;53.30;;;;;;;3.89;98.24;102442.97;5068919;28;20406;-65
2022/01/16 12:02:08;;;;;;;109.90;53.03;;;;;;;3.90;98.52;102452.59;5068512;28;20055;-65
2022/01/16 12:04:34;;;;;;;106.75;51.05;;;;;;;3.95;97.77;102448.16;5068781;28;20074;-65
2022/01/16 12:07:19;;;;;;;105.22;49.67;;;;;;;3.93;97.95;102447.28;5069390;28;20036;-65